Time;durP1;ratioP1;P1;durP2;ratioP2;P2;SDS_P1;SDS_P2;PMS_P1;PMS_P2;Temp;Humidity;BMP_temperature;BMP_pressure;BME280_temperature;BME280_humidity;BME280_pressure;Samples;Min_cycle;Max_cycle;Signal;HPM_P1;HPM_P2
2021/12/13 00:02:08;;;;;;;99.45;31.40;;;;;;;;;;5097283;28;20051;-81
2021/12/13 00:04:36;;;;;;;114.93;36.53;;;;;;;;;;5114828;28;20048;-81
2021/12/13 00:07:06;;;;;;;140.30;38.13;;;;;;;;;;5097209;28;20051;-82
2021/12/13 00:09:39;;;;;;;136.25;39.08;;;;;;;;;;5093492;28;20048;-82
2021/12/13 00:12:05;;;;;;;123.95;36.50;;;;;;;;;;5093753;28;20127;-81
2021/12/13 00:14:33;;;;;;;101.85;34.83;;;;;;;;;;5094836;28;20189;-82
2021/12/13 00:17:11;;;;;;;103.45;34.58;;;;;;;;;;5076682;28;20458;-82
2021/12/13 00:19:43;;;;;;;87.07;30.25;;;;;;;;;;5093504;28;20079;-81
2021/12/13 00:22:12;;;;;;;106.50;36.05;;;;;;;;;;5093105;28;20048;-82
2021/12/13 00:24:40;;;;;;;118.25;34.17;;;;;;;;;;5093070;28;20040;-81
2021/12/13 00:27:10;;;;;;;100.68;33.47;;;;;;;;;;5094636;28;20063;-82
2021/12/13 00:29:46;;;;;;;92.10;32.20;;;;;;;;;;5093434;28;20086;-82
2021/12/13 00:32:21;;;;;;;95.13;33.20;;;;;;;;;;5094089;28;20036;-80
2021/12/13 00:34:49;;;;;;;95.10;31.38;;;;;;;;;;5076177;28;20044;-82
2021/12/13 00:37:28;;;;;;;96.57;32.83;;;;;;;;;;5094271;28;20173;-81
2021/12/13 00:39:58;;;;;;;82.28;31.42;;;;;;;;;;5094169;28;20392;-81
2021/12/13 00:42:29;;;;;;;75.30;28.70;;;;;;;;;;5092996;28;20123;-81
2021/12/13 00:45:01;;;;;;;68.35;27.50;;;;;;;;;;5092704;28;20055;-83
2021/12/13 00:47:31;;;;;;;70.03;29.98;;;;;;;;;;5093895;28;20036;-82
2021/12/13 00:50:01;;;;;;;75.18;30.65;;;;;;;;;;5093014;28;20384;-82
2021/12/13 00:52:30;;;;;;;72.00;27.10;;;;;;;;;;5093006;28;20087;-82
2021/12/13 00:54:57;;;;;;;61.10;27.02;;;;;;;;;;5093880;28;20046;-82
2021/12/13 00:57:41;;;;;;;67.97;28.67;;;;;;;;;;5093740;28;20044;-82
2021/12/13 01:00:14;;;;;;;65.75;27.75;;;;;;;;;;5092585;28;20056;-83
2021/12/13 01:02:46;;;;;;;72.00;30.42;;;;;;;;;;5093773;28;20098;-81
2021/12/13 01:05:30;;;;;;;68.22;29.48;;;;;;;;;;5093842;28;20055;-82
2021/12/13 01:08:26;;;;;;;54.38;26.27;;;;;;;;;;5075380;28;20459;-82
2021/12/13 01:10:52;;;;;;;63.90;28.73;;;;;;;;;;5084465;28;20130;-82
2021/12/13 01:13:18;;;;;;;61.33;27.83;;;;;;;;;;5093549;28;20032;-81
2021/12/13 01:15:49;;;;;;;64.88;29.48;;;;;;;;;;5092772;28;20105;-80
2021/12/13 01:18:33;;;;;;;65.82;29.25;;;;;;;;;;5075519;28;20498;-80
2021/12/13 01:21:15;;;;;;;64.38;27.27;;;;;;;;;;5092616;28;20458;-81
2021/12/13 01:23:49;;;;;;;54.28;25.75;;;;;;;;;;5093329;28;20039;-82
2021/12/13 01:26:38;;;;;;;51.55;27.02;;;;;;;;;;5075434;28;20048;-82
2021/12/13 01:29:07;;;;;;;73.68;29.10;;;;;;;;;;5093137;28;20051;-82
2021/12/13 01:31:39;;;;;;;67.10;28.10;;;;;;;;;;5092293;28;20098;-81
2021/12/13 01:34:06;;;;;;;72.55;30.63;;;;;;;;;;5092287;28;20056;-81
2021/12/13 01:36:42;;;;;;;65.28;28.40;;;;;;;;;;5075425;28;20131;-82
2021/12/13 01:39:10;;;;;;;65.45;28.33;;;;;;;;;;5093155;28;20048;-82
2021/12/13 01:41:41;;;;;;;62.30;29.80;;;;;;;;;;5092868;28;20036;-81
2021/12/13 01:44:16;;;;;;;63.45;26.75;;;;;;;;;;5091750;28;20139;-82
2021/12/13 01:46:45;;;;;;;57.53;25.65;;;;;;;;;;5092992;28;20115;-81
2021/12/13 01:49:11;;;;;;;75.13;29.02;;;;;;;;;;5092929;28;20123;-81
2021/12/13 01:51:38;;;;;;;57.17;24.70;;;;;;;;;;5093034;28;20040;-82
2021/12/13 01:54:33;;;;;;;62.42;25.60;;;;;;;;;;5092931;28;20401;-81
2021/12/13 01:57:22;;;;;;;47.00;22.45;;;;;;;;;;5088176;28;20048;-82
2021/12/13 01:59:57;;;;;;;48.03;23.55;;;;;;;;;;5074851;28;20051;-82
2021/12/13 02:02:28;;;;;;;49.72;23.15;;;;;;;;;;5092616;28;20044;-82
2021/12/13 02:04:54;;;;;;;;;;;;;;;;;;5093057;28;20074;-82
2021/12/13 02:07:23;;;;;;;49.80;20.45;;;;;;;;;;5091659;28;19923;-81
2021/12/13 02:09:50;;;;;;;43.58;21.55;;;;;;;;;;5102150;28;20101;-81
2021/12/13 02:12:17;;;;;;;35.50;19.50;;;;;;;;;;5112906;28;20473;-82
2021/12/13 02:17:40;;;;;;;44.15;21.35;;;;;;;;;;5097845;28;20073;-81
2021/12/13 02:20:11;;;;;;;35.95;19.88;;;;;;;;;;5094976;28;20059;-82
2021/12/13 02:22:41;;;;;;;43.63;22.07;;;;;;;;;;5078153;28;20477;-81
2021/12/13 02:25:16;;;;;;;45.75;22.00;;;;;;;;;;5112576;28;20338;-80
2021/12/13 02:27:44;;;;;;;45.92;21.60;;;;;;;;;;5096287;28;20047;-82
2021/12/13 02:30:14;;;;;;;34.60;19.00;;;;;;;;;;5116986;28;20046;-82
2021/12/13 02:32:41;;;;;;;39.88;20.40;;;;;;;;;;5116986;28;20437;-82
2021/12/13 02:35:08;;;;;;;34.00;18.98;;;;;;;;;;5098815;28;20055;-81
2021/12/13 02:37:34;;;;;;;35.25;20.02;;;;;;;;;;5116946;28;20043;-81
2021/12/13 02:40:00;;;;;;;38.35;21.40;;;;;;;;;;5098891;28;20100;-82
2021/12/13 02:42:28;;;;;;;34.60;19.65;;;;;;;;;;5117096;28;20050;-81
2021/12/13 02:44:58;;;;;;;29.30;19.20;;;;;;;;;;5098612;28;20046;-82
2021/12/13 02:47:36;;;;;;;33.90;21.27;;;;;;;;;;5081783;28;20130;-82
2021/12/13 02:50:04;;;;;;;36.85;21.33;;;;;;;;;;5098547;28;20039;-82
2021/12/13 02:52:31;;;;;;;33.47;21.45;;;;;;;;;;5116477;28;20085;-82
2021/12/13 02:55:00;;;;;;;33.85;20.33;;;;;;;;;;5098432;28;20039;-82
2021/12/13 02:57:37;;;;;;;35.63;20.95;;;;;;;;;;5081568;28;20048;-82
2021/12/13 03:00:14;;;;;;;34.58;20.85;;;;;;;;;;5116535;28;20047;-82
2021/12/13 03:02:42;;;;;;;34.67;20.98;;;;;;;;;;5098162;28;20090;-82
2021/12/13 03:05:12;;;;;;;34.92;20.67;;;;;;;;;;5116616;28;20153;-83
2021/12/13 03:07:42;;;;;;;40.70;21.85;;;;;;;;;;5098274;28;20043;-82
2021/12/13 03:10:20;;;;;;;31.25;19.75;;;;;;;;;;5097945;28;20052;-83
2021/12/13 03:12:46;;;;;;;45.13;22.73;;;;;;;;;;5116041;28;20052;-82
2021/12/13 03:15:15;;;;;;;39.42;22.92;;;;;;;;;;5098088;28;20040;-82
2021/12/13 03:17:44;;;;;;;35.05;21.05;;;;;;;;;;5097997;28;20130;-83
2021/12/13 03:20:10;;;;;;;37.72;21.15;;;;;;;;;;5080873;28;20426;-83
2021/12/13 03:22:55;;;;;;;36.97;22.63;;;;;;;;;;5098055;28;20054;-83
2021/12/13 03:25:27;;;;;;;45.75;24.83;;;;;;;;;;5097809;28;20047;-82
2021/12/13 03:28:12;;;;;;;40.58;22.70;;;;;;;;;;5081021;28;20050;-82
2021/12/13 03:30:59;;;;;;;33.22;21.77;;;;;;;;;;5115898;28;20110;-82
2021/12/13 03:33:34;;;;;;;38.30;22.95;;;;;;;;;;5097899;28;20048;-82
2021/12/13 03:36:05;;;;;;;40.97;23.30;;;;;;;;;;5080759;28;20156;-82
2021/12/13 03:38:36;;;;;;;33.30;19.70;;;;;;;;;;5097289;28;20047;-82
2021/12/13 03:41:06;;;;;;;35.05;22.90;;;;;;;;;;5115460;28;20508;-83
2021/12/13 03:43:35;;;;;;;34.80;23.50;;;;;;;;;;5097485;28;20130;-82
2021/12/13 03:46:03;;;;;;;37.00;22.13;;;;;;;;;;5097552;28;20086;-81
2021/12/13 03:48:30;;;;;;;39.40;22.25;;;;;;;;;;5115477;28;20043;-80
2021/12/13 03:51:00;;;;;;;29.75;17.70;;;;;;;;;;5115659;28;20358;-81
2021/12/13 03:53:27;;;;;;;32.13;19.03;;;;;;;;;;5115318;28;20500;-82
2021/12/13 03:55:56;;;;;;;30.17;18.70;;;;;;;;;;5097101;28;20044;-82
2021/12/13 03:58:24;;;;;;;31.50;17.58;;;;;;;;;;5115473;28;20062;-82
2021/12/13 04:01:04;;;;;;;29.30;16.95;;;;;;;;;;5115271;28;20458;-82
2021/12/13 04:03:30;;;;;;;27.15;16.35;;;;;;;;;;5115365;28;20104;-81
2021/12/13 04:05:59;;;;;;;27.73;16.35;;;;;;;;;;5097387;28;20560;-81
2021/12/13 04:08:26;;;;;;;29.30;17.50;;;;;;;;;;5097211;28;20066;-81
2021/12/13 04:11:02;;;;;;;29.45;16.38;;;;;;;;;;5096487;28;20043;-81
2021/12/13 04:13:30;;;;;;;27.10;16.25;;;;;;;;;;5114751;28;20400;-82
2021/12/13 04:16:14;;;;;;;27.75;16.83;;;;;;;;;;5115439;28;20096;-82
2021/12/13 04:21:23;;;;;;;29.05;17.23;;;;;;;;;;5097035;28;20059;-81
2021/12/13 04:23:50;;;;;;;31.25;18.05;;;;;;;;;;5114610;28;20126;-82
2021/12/13 04:26:16;;;;;;;36.33;17.73;;;;;;;;;;5096844;28;20495;-81
2021/12/13 04:28:44;;;;;;;29.88;17.23;;;;;;;;;;5096954;28;20123;-81
2021/12/13 04:31:14;;;;;;;31.15;18.48;;;;;;;;;;5096424;28;20081;-82
2021/12/13 04:33:44;;;;;;;35.35;18.13;;;;;;;;;;5096394;28;20048;-82
2021/12/13 04:36:13;;;;;;;30.90;18.67;;;;;;;;;;5114487;28;20051;-81
2021/12/13 04:38:50;;;;;;;29.63;17.60;;;;;;;;;;5114429;28;20100;-82
2021/12/13 04:41:22;;;;;;;34.65;18.52;;;;;;;;;;5114618;28;20054;-81
2021/12/13 04:43:48;;;;;;;30.70;18.70;;;;;;;;;;5096271;28;20341;-81
2021/12/13 04:46:17;;;;;;;33.10;19.02;;;;;;;;;;5096117;28;20039;-82
2021/12/13 04:48:46;;;;;;;31.40;19.35;;;;;;;;;;5096313;28;20097;-82
2021/12/13 04:51:26;;;;;;;31.63;18.67;;;;;;;;;;5114277;28;20136;-83
2021/12/13 04:53:52;;;;;;;32.15;18.15;;;;;;;;;;5096289;28;20079;-82
2021/12/13 04:56:24;;;;;;;31.88;18.13;;;;;;;;;;5079525;28;20060;-81
2021/12/13 04:58:51;;;;;;;31.90;18.15;;;;;;;;;;5114358;28;20082;-81
2021/12/13 05:01:18;;;;;;;35.45;18.95;;;;;;;;;;5113832;28;20127;-81
2021/12/13 05:03:47;;;;;;;31.80;17.45;;;;;;;;;;5095942;28;20079;-82
2021/12/13 05:06:16;;;;;;;28.35;16.50;;;;;;;;;;5114042;28;20043;-80
2021/12/13 05:08:45;;;;;;;33.28;16.05;;;;;;;;;;5079135;28;20055;-82
2021/12/13 05:11:11;;;;;;;36.63;17.60;;;;;;;;;;5095305;28;20139;-81
2021/12/13 05:13:39;;;;;;;35.55;17.48;;;;;;;;;;5113730;28;20043;-82
2021/12/13 05:16:09;;;;;;;26.95;15.80;;;;;;;;;;5095460;28;20079;-81
2021/12/13 05:18:39;;;;;;;30.30;16.08;;;;;;;;;;5114028;28;20139;-82
2021/12/13 05:21:08;;;;;;;28.10;14.13;;;;;;;;;;5113796;28;20085;-82
2021/12/13 05:23:39;;;;;;;31.10;15.00;;;;;;;;;;5095383;28;20465;-81
2021/12/13 05:26:07;;;;;;;27.10;13.88;;;;;;;;;;5095688;28;20142;-82
2021/12/13 05:28:44;;;;;;;29.70;15.73;;;;;;;;;;5095328;28;20054;-83
2021/12/13 05:31:16;;;;;;;29.95;15.27;;;;;;;;;;5078970;28;20481;-82
2021/12/13 05:33:43;;;;;;;29.98;15.15;;;;;;;;;;5095520;28;20131;-82
2021/12/13 05:36:11;;;;;;;26.17;14.65;;;;;;;;;;5078674;28;20058;-81
2021/12/13 05:38:41;;;;;;;27.00;15.00;;;;;;;;;;5078385;28;20467;-82
2021/12/13 05:41:08;;;;;;;35.83;16.45;;;;;;;;;;5113175;28;20074;-81
2021/12/13 05:43:39;;;;;;;31.63;15.15;;;;;;;;;;5095122;28;20434;-82
2021/12/13 05:46:07;;;;;;;30.15;14.32;;;;;;;;;;5095202;28;20047;-81
2021/12/13 05:48:37;;;;;;;27.52;14.43;;;;;;;;;;5113344;28;20046;-83
2021/12/13 05:51:06;;;;;;;26.00;14.77;;;;;;;;;;5113675;28;20557;-81
2021/12/13 05:53:35;;;;;;;26.45;14.40;;;;;;;;;;5112904;28;20530;-81
2021/12/13 05:56:05;;;;;;;26.20;14.20;;;;;;;;;;5095197;28;20082;-81
2021/12/13 05:58:38;;;;;;;26.98;13.23;;;;;;;;;;5113383;28;20070;-81
2021/12/13 06:01:12;;;;;;;22.00;13.25;;;;;;;;;;5113083;28;20126;-82
2021/12/13 06:03:40;;;;;;;22.52;12.98;;;;;;;;;;5112422;28;20096;-82
2021/12/13 06:06:10;;;;;;;22.92;12.77;;;;;;;;;;5112810;28;20082;-83
2021/12/13 06:08:39;;;;;;;20.60;13.35;;;;;;;;;;5113105;28;20046;-81
2021/12/13 06:11:09;;;;;;;27.20;13.35;;;;;;;;;;5112744;28;20134;-82
2021/12/13 06:13:51;;;;;;;22.08;13.18;;;;;;;;;;5112983;28;20082;-82
2021/12/13 06:16:19;;;;;;;21.38;13.60;;;;;;;;;;5113335;28;20069;-82
2021/12/13 06:19:02;;;;;;;24.88;13.70;;;;;;;;;;5078470;28;20083;-82
2021/12/13 06:21:54;;;;;;;21.65;13.70;;;;;;;;;;5095097;28;20358;-82
2021/12/13 06:24:26;;;;;;;23.52;13.68;;;;;;;;;;5090051;28;20104;-82
2021/12/13 06:27:01;;;;;;;27.85;15.15;;;;;;;;;;5094766;28;20044;-82
2021/12/13 06:29:40;;;;;;;24.80;14.85;;;;;;;;;;5078040;28;20043;-82
2021/12/13 06:32:20;;;;;;;29.00;16.70;;;;;;;;;;5094599;28;20090;-82
2021/12/13 06:34:47;;;;;;;27.85;15.73;;;;;;;;;;5112917;28;20066;-82
2021/12/13 06:37:13;;;;;;;27.33;16.80;;;;;;;;;;5061127;28;20083;-82
2021/12/13 06:39:39;;;;;;;29.13;17.45;;;;;;;;;;5094471;28;20040;-82
2021/12/13 06:42:07;;;;;;;24.00;17.35;;;;;;;;;;5112900;28;20131;-82
2021/12/13 06:44:38;;;;;;;30.80;18.05;;;;;;;;;;5112705;28;20036;-81
2021/12/13 06:47:21;;;;;;;28.88;16.77;;;;;;;;;;5094744;28;20043;-82
2021/12/13 06:49:58;;;;;;;31.48;18.42;;;;;;;;;;5112645;28;20082;-81
2021/12/13 06:52:32;;;;;;;34.00;19.15;;;;;;;;;;5094626;28;20043;-82
2021/12/13 06:55:19;;;;;;;32.45;20.10;;;;;;;;;;5112709;28;20051;-82
2021/12/13 06:57:48;;;;;;;32.22;19.50;;;;;;;;;;5112612;28;20043;-82
2021/12/13 07:00:37;;;;;;;33.40;21.63;;;;;;;;;;5112539;28;20043;-81
2021/12/13 07:03:06;;;;;;;35.50;22.00;;;;;;;;;;5112452;28;20434;-82
2021/12/13 07:05:32;;;;;;;36.25;22.13;;;;;;;;;;5112615;28;20123;-81
2021/12/13 07:08:00;;;;;;;40.45;24.58;;;;;;;;;;5112461;28;20050;-81
2021/12/13 07:10:47;;;;;;;36.00;23.70;;;;;;;;;;5112150;28;20122;-82
2021/12/13 07:13:32;;;;;;;36.83;23.00;;;;;;;;;;5094845;28;20538;-84
2021/12/13 07:16:15;;;;;;;37.30;23.92;;;;;;;;;;5115931;28;20071;-82
2021/12/13 07:18:48;;;;;;;48.00;26.00;;;;;;;;;;5116019;28;20039;-81
2021/12/13 07:21:34;;;;;;;38.75;24.23;;;;;;;;;;5116372;28;20063;-82
2021/12/13 07:24:06;;;;;;;43.42;26.90;;;;;;;;;;5097784;28;20066;-82
2021/12/13 07:26:39;;;;;;;43.13;27.27;;;;;;;;;;5097629;28;20043;-81
2021/12/13 07:29:07;;;;;;;45.10;28.50;;;;;;;;;;5116011;28;20122;-82
2021/12/13 07:31:34;;;;;;;44.65;28.42;;;;;;;;;;5097722;28;20041;-82
2021/12/13 07:34:07;;;;;;;47.83;28.90;;;;;;;;;;5080714;28;20362;-81
2021/12/13 07:36:33;;;;;;;51.60;31.65;;;;;;;;;;5115851;28;20075;-81
2021/12/13 07:39:03;;;;;;;45.35;28.80;;;;;;;;;;5115751;28;20048;-81
2021/12/13 07:41:48;;;;;;;45.65;30.55;;;;;;;;;;5097675;28;20083;-81
2021/12/13 07:44:33;;;;;;;50.42;30.60;;;;;;;;;;5115829;28;20039;-81
2021/12/13 07:47:05;;;;;;;53.53;30.67;;;;;;;;;;5115472;28;20039;-82
2021/12/13 07:49:35;;;;;;;54.47;31.80;;;;;;;;;;5115662;28;20126;-81
2021/12/13 07:52:03;;;;;;;45.78;30.33;;;;;;;;;;5097380;28;20040;-82
2021/12/13 07:54:36;;;;;;;54.83;30.20;;;;;;;;;;5080204;28;20148;-82
2021/12/13 07:57:03;;;;;;;47.67;30.00;;;;;;;;;;5097443;28;20036;-81
2021/12/13 07:59:35;;;;;;;45.53;29.67;;;;;;;;;;5097087;28;20040;-83
2021/12/13 08:02:08;;;;;;;50.58;30.75;;;;;;;;;;5114758;28;20388;-83
2021/12/13 08:04:44;;;;;;;46.90;30.42;;;;;;;;;;5079615;28;20507;-83
2021/12/13 08:07:13;;;;;;;49.15;32.17;;;;;;;;;;5114868;28;20044;-82
2021/12/13 08:09:50;;;;;;;45.38;30.77;;;;;;;;;;5094916;28;20048;-81
2021/12/13 08:12:24;;;;;;;47.70;30.98;;;;;;;;;;5096619;28;20044;-83
2021/12/13 08:14:52;;;;;;;47.03;30.63;;;;;;;;;;5097104;28;20560;-83
2021/12/13 08:17:18;;;;;;;48.08;31.42;;;;;;;;;;5079775;28;20070;-83
2021/12/13 08:19:57;;;;;;;48.92;32.78;;;;;;;;;;5096619;28;20043;-82
2021/12/13 08:22:28;;;;;;;44.83;30.95;;;;;;;;;;5115026;28;20047;-81
2021/12/13 08:24:55;;;;;;;46.95;31.73;;;;;;;;;;5096318;28;20469;-83
2021/12/13 08:27:30;;;;;;;47.53;31.70;;;;;;;;;;5096455;28;20097;-82
2021/12/13 08:30:04;;;;;;;44.83;30.10;;;;;;;;;;5115036;28;20051;-82
2021/12/13 08:32:31;;;;;;;53.08;31.55;;;;;;;;;;5114954;28;20035;-82
2021/12/13 08:34:58;;;;;;;48.45;31.77;;;;;;;;;;5114697;28;20048;-82
2021/12/13 08:37:29;;;;;;;47.92;31.88;;;;;;;;;;5096765;28;20083;-82
2021/12/13 08:40:02;;;;;;;45.25;32.22;;;;;;;;;;5114694;28;20143;-82
2021/12/13 08:42:31;;;;;;;47.25;31.58;;;;;;;;;;5114167;28;20043;-82
2021/12/13 08:45:03;;;;;;;45.97;31.42;;;;;;;;;;5114398;28;20087;-81
2021/12/13 08:47:47;;;;;;;47.35;30.90;;;;;;;;;;5096475;28;20122;-82
2021/12/13 08:50:21;;;;;;;47.00;31.23;;;;;;;;;;5114192;28;20420;-82
2021/12/13 08:52:54;;;;;;;48.60;32.75;;;;;;;;;;5096119;28;20052;-82
2021/12/13 08:55:34;;;;;;;45.70;32.53;;;;;;;;;;5114294;28;20152;-82
2021/12/13 08:58:11;;;;;;;50.47;33.78;;;;;;;;;;5079557;28;20065;-82
2021/12/13 09:00:43;;;;;;;49.05;33.90;;;;;;;;;;5114161;28;20384;-84
2021/12/13 09:03:16;;;;;;;48.78;34.20;;;;;;;;;;5095720;28;20395;-82
2021/12/13 09:05:42;;;;;;;45.67;31.02;;;;;;;;;;5095861;28;20050;-82
2021/12/13 09:08:14;;;;;;;45.25;30.73;;;;;;;;;;5096035;28;20046;-83
2021/12/13 09:10:50;;;;;;;44.42;30.92;;;;;;;;;;5113660;28;20126;-81
2021/12/13 09:13:19;;;;;;;51.30;32.97;;;;;;;;;;5095592;28;20134;-81
2021/12/13 09:15:48;;;;;;;53.67;35.90;;;;;;;;;;5095687;28;20050;-82
2021/12/13 09:18:19;;;;;;;42.83;31.15;;;;;;;;;;5095793;28;20040;-82
2021/12/13 09:20:47;;;;;;;46.13;31.13;;;;;;;;;;5113715;28;20036;-82
2021/12/13 09:23:19;;;;;;;43.67;29.88;;;;;;;;;;5113665;28;20444;-83
2021/12/13 09:25:50;;;;;;;43.80;31.33;;;;;;;;;;5095598;28;20071;-82
2021/12/13 09:28:16;;;;;;;44.40;30.58;;;;;;;;;;5095612;28;20047;-81
2021/12/13 09:30:45;;;;;;;43.72;29.58;;;;;;;;;;5113763;28;20365;-82
2021/12/13 09:33:15;;;;;;;43.17;28.63;;;;;;;;;;5095767;28;20119;-81
2021/12/13 09:35:44;;;;;;;45.72;30.95;;;;;;;;;;5113523;28;20127;-82
2021/12/13 09:38:26;;;;;;;44.17;30.60;;;;;;;;;;5112642;28;20130;-81
2021/12/13 09:40:59;;;;;;;39.42;27.70;;;;;;;;;;5095342;28;20513;-80
2021/12/13 09:43:34;;;;;;;43.15;28.85;;;;;;;;;;5113403;28;20075;-82
2021/12/13 09:46:00;;;;;;;43.92;28.63;;;;;;;;;;5113583;28;20126;-82
2021/12/13 09:48:29;;;;;;;41.40;28.90;;;;;;;;;;5095170;28;20043;-82
2021/12/13 09:50:58;;;;;;;42.00;27.80;;;;;;;;;;5094904;28;20405;-82
2021/12/13 09:53:26;;;;;;;39.47;28.80;;;;;;;;;;5113500;28;20111;-83
2021/12/13 09:55:53;;;;;;;36.83;26.80;;;;;;;;;;5113770;28;20039;-81
2021/12/13 09:58:23;;;;;;;38.95;27.85;;;;;;;;;;5078395;28;20499;-82
2021/12/13 10:00:52;;;;;;;40.45;27.50;;;;;;;;;;5095442;28;20086;-81
2021/12/13 10:03:22;;;;;;;39.45;27.58;;;;;;;;;;5113137;28;20066;-82
2021/12/13 10:05:51;;;;;;;40.30;27.02;;;;;;;;;;5095269;28;20480;-82
2021/12/13 10:08:19;;;;;;;36.75;25.80;;;;;;;;;;5095323;28;20494;-83
2021/12/13 10:10:57;;;;;;;42.13;26.83;;;;;;;;;;5095063;28;20476;-83
2021/12/13 10:13:25;;;;;;;41.85;26.58;;;;;;;;;;5113361;28;20515;-82
2021/12/13 10:15:53;;;;;;;36.72;25.13;;;;;;;;;;5113320;28;20044;-81
2021/12/13 10:18:21;;;;;;;36.20;25.20;;;;;;;;;;5113366;28;20476;-82
2021/12/13 10:20:52;;;;;;;38.35;26.25;;;;;;;;;;5095732;28;20496;-82
2021/12/13 10:23:21;;;;;;;36.50;25.13;;;;;;;;;;5113452;28;20044;-82
2021/12/13 10:25:48;;;;;;;35.70;25.67;;;;;;;;;;5095491;28;20097;-82
2021/12/13 10:28:17;;;;;;;37.65;26.25;;;;;;;;;;5078477;28;20173;-82
2021/12/13 10:30:49;;;;;;;38.20;25.77;;;;;;;;;;5113249;28;20043;-81
2021/12/13 10:33:16;;;;;;;39.72;26.63;;;;;;;;;;5113315;28;20501;-81
2021/12/13 10:35:43;;;;;;;39.03;25.33;;;;;;;;;;5113274;28;20118;-82
2021/12/13 10:38:19;;;;;;;32.13;22.60;;;;;;;;;;5113144;28;20036;-81
2021/12/13 10:40:56;;;;;;;31.48;23.30;;;;;;;;;;5094939;28;20043;-82
2021/12/13 10:43:25;;;;;;;32.97;21.95;;;;;;;;;;5111705;28;20500;-82
2021/12/13 10:45:58;;;;;;;35.30;22.85;;;;;;;;;;5093569;28;20583;-82
2021/12/13 10:48:27;;;;;;;36.13;23.27;;;;;;;;;;5113017;28;20497;-81
2021/12/13 10:51:13;;;;;;;31.88;21.75;;;;;;;;;;5097712;28;20122;-80
2021/12/13 10:53:41;;;;;;;32.35;22.90;;;;;;;;;;5097479;28;20118;-81
2021/12/13 10:56:10;;;;;;;30.77;21.50;;;;;;;;;;5097597;28;20052;-81
2021/12/13 10:58:39;;;;;;;35.25;22.83;;;;;;;;;;5097097;28;20085;-76
2021/12/13 11:01:09;;;;;;;33.78;21.60;;;;;;;;;;5115613;28;20085;-76
2021/12/13 11:03:37;;;;;;;29.98;21.58;;;;;;;;;;5097306;28;20080;-74
2021/12/13 11:06:04;;;;;;;33.35;22.55;;;;;;;;;;5115170;28;20054;-75
2021/12/13 11:08:31;;;;;;;31.50;22.90;;;;;;;;;;5115069;28;20100;-75
2021/12/13 11:11:04;;;;;;;30.25;21.70;;;;;;;;;;5096447;28;20039;-75
2021/12/13 11:13:32;;;;;;;30.92;20.77;;;;;;;;;;5114970;28;20039;-74
2021/12/13 11:16:00;;;;;;;31.02;21.73;;;;;;;;;;5114955;28;20044;-75
2021/12/13 11:18:28;;;;;;;31.05;21.67;;;;;;;;;;5096747;28;20134;-74
2021/12/13 11:20:56;;;;;;;30.02;21.58;;;;;;;;;;5114807;28;20054;-75
2021/12/13 11:23:22;;;;;;;29.42;21.13;;;;;;;;;;5114737;28;20039;-75
2021/12/13 11:25:55;;;;;;;26.08;21.02;;;;;;;;;;5096939;28;20130;-74
2021/12/13 11:28:23;;;;;;;34.72;22.90;;;;;;;;;;5096748;28;20062;-74
2021/12/13 11:30:50;;;;;;;31.88;23.33;;;;;;;;;;5096654;28;20126;-75
2021/12/13 11:33:22;;;;;;;28.30;20.23;;;;;;;;;;5096614;28;20169;-75
2021/12/13 11:36:03;;;;;;;31.67;21.20;;;;;;;;;;5114338;28;20079;-74
2021/12/13 11:38:48;;;;;;;29.73;21.83;;;;;;;;;;5114592;28;20177;-74
2021/12/13 11:41:34;;;;;;;30.13;20.50;;;;;;;;;;5114345;28;20412;-75
2021/12/13 11:44:07;;;;;;;30.60;22.23;;;;;;;;;;5096084;28;20538;-74
2021/12/13 11:46:52;;;;;;;32.58;22.70;;;;;;;;;;5096420;28;20123;-75
2021/12/13 11:49:18;;;;;;;29.33;20.42;;;;;;;;;;5114478;28;20047;-74
2021/12/13 11:51:56;;;;;;;33.00;20.58;;;;;;;;;;5114119;28;20043;-75
2021/12/13 11:54:41;;;;;;;31.42;21.02;;;;;;;;;;5114624;28;20044;-74
2021/12/13 11:57:29;;;;;;;28.35;19.65;;;;;;;;;;5079937;28;20100;-75
2021/12/13 12:00:01;;;;;;;31.70;20.00;;;;;;;;;;5114387;28;20201;-74
2021/12/13 12:02:46;;;;;;;30.00;20.33;;;;;;;;;;5080509;28;20051;-74
2021/12/13 12:05:12;;;;;;;31.88;21.02;;;;;;;;;;5115185;28;20126;-74
2021/12/13 12:07:41;;;;;;;29.75;19.90;;;;;;;;;;5080109;28;20043;-75
2021/12/13 12:10:17;;;;;;;26.83;18.65;;;;;;;;;;5096920;28;20123;-74
2021/12/13 12:13:02;;;;;;;27.52;19.88;;;;;;;;;;5080172;28;20051;-74
2021/12/13 12:15:28;;;;;;;29.42;19.83;;;;;;;;;;5097173;28;20044;-75
2021/12/13 12:18:00;;;;;;;26.30;19.63;;;;;;;;;;5096834;28;20086;-75
2021/12/13 12:20:28;;;;;;;28.00;18.73;;;;;;;;;;5114918;28;20083;-75
2021/12/13 12:22:56;;;;;;;26.77;19.92;;;;;;;;;;5114871;28;20048;-74
2021/12/13 12:25:23;;;;;;;27.73;19.65;;;;;;;;;;5114679;28;20039;-75
2021/12/13 12:27:51;;;;;;;32.10;20.38;;;;;;;;;;5115034;28;20050;-73
2021/12/13 12:30:20;;;;;;;29.75;19.48;;;;;;;;;;5096595;28;20075;-76
2021/12/13 12:32:54;;;;;;;30.17;19.90;;;;;;;;;;5079912;28;20553;-73
2021/12/13 12:35:28;;;;;;;29.70;19.92;;;;;;;;;;5114616;28;20048;-74
2021/12/13 12:38:01;;;;;;;28.63;19.10;;;;;;;;;;5096562;28;20083;-73
2021/12/13 12:40:31;;;;;;;26.25;19.35;;;;;;;;;;5114582;28;20049;-74
2021/12/13 12:42:59;;;;;;;26.98;18.42;;;;;;;;;;5096301;28;20039;-74
2021/12/13 12:45:28;;;;;;;26.73;19.10;;;;;;;;;;5114310;28;20051;-75
2021/12/13 12:48:12;;;;;;;27.45;20.35;;;;;;;;;;5096224;28;20112;-74
2021/12/13 12:50:38;;;;;;;28.30;18.88;;;;;;;;;;5114495;28;20089;-74
2021/12/13 12:53:22;;;;;;;29.05;19.23;;;;;;;;;;5096484;28;20469;-74
2021/12/13 12:55:59;;;;;;;27.45;19.95;;;;;;;;;;5095994;28;20051;-74
2021/12/13 12:58:27;;;;;;;27.92;20.20;;;;;;;;;;5096035;28;20051;-74
2021/12/13 13:00:55;;;;;;;26.83;19.10;;;;;;;;;;5096300;28;20090;-74
2021/12/13 13:03:31;;;;;;;29.42;19.42;;;;;;;;;;5114149;28;20079;-74
2021/12/13 13:06:02;;;;;;;28.55;20.15;;;;;;;;;;5114152;28;20044;-74
2021/12/13 13:08:29;;;;;;;29.17;19.65;;;;;;;;;;5113877;28;20050;-75
2021/12/13 13:14:03;;;;;;;32.55;20.15;;;;;;;;;;5014419;28;20550;-74
2021/12/13 13:16:32;;;;;;;30.20;21.00;;;;;;;;;;5099186;28;20047;-75
2021/12/13 13:18:58;;;;;;;30.25;20.45;;;;;;;;;;5113767;28;20040;-74
2021/12/13 13:21:25;;;;;;;28.65;20.05;;;;;;;;;;5113574;28;20054;-74
2021/12/13 13:23:53;;;;;;;27.90;19.70;;;;;;;;;;5113787;28;20127;-73
2021/12/13 13:26:21;;;;;;;30.05;20.50;;;;;;;;;;5113705;28;20393;-74
2021/12/13 13:28:50;;;;;;;30.55;19.85;;;;;;;;;;5113664;28;20036;-74
2021/12/13 13:31:22;;;;;;;27.77;19.60;;;;;;;;;;5113521;28;20545;-74
2021/12/13 13:33:51;;;;;;;27.35;18.95;;;;;;;;;;5113396;28;20045;-74
2021/12/13 13:36:25;;;;;;;29.30;20.27;;;;;;;;;;5113510;28;20496;-74
2021/12/13 13:38:51;;;;;;;30.17;20.42;;;;;;;;;;5095353;28;20048;-75
2021/12/13 13:41:20;;;;;;;29.30;20.00;;;;;;;;;;5078457;28;20053;-75
2021/12/13 13:43:48;;;;;;;27.65;19.73;;;;;;;;;;5095170;28;20052;-75
2021/12/13 13:46:15;;;;;;;28.05;19.27;;;;;;;;;;5094915;28;20039;-75
2021/12/13 13:48:42;;;;;;;25.45;19.13;;;;;;;;;;5113462;28;20098;-75
2021/12/13 13:51:11;;;;;;;26.95;19.00;;;;;;;;;;5113254;28;20488;-75
2021/12/13 13:53:49;;;;;;;28.92;19.95;;;;;;;;;;5095327;28;20051;-74
2021/12/13 13:56:21;;;;;;;27.95;19.48;;;;;;;;;;5113147;28;20040;-75
2021/12/13 13:58:52;;;;;;;29.48;20.63;;;;;;;;;;5112986;28;20048;-75
2021/12/13 14:01:29;;;;;;;29.38;21.30;;;;;;;;;;5095349;28;20036;-74
2021/12/13 14:03:57;;;;;;;31.33;21.45;;;;;;;;;;5077954;28;20509;-74
2021/12/13 14:06:32;;;;;;;30.45;21.15;;;;;;;;;;5094911;28;20051;-74
2021/12/13 14:09:01;;;;;;;32.60;22.30;;;;;;;;;;5113091;28;20077;-74
2021/12/13 14:11:28;;;;;;;33.28;22.42;;;;;;;;;;5094489;28;20477;-74
2021/12/13 14:13:57;;;;;;;30.15;21.35;;;;;;;;;;5095194;28;20051;-73
2021/12/13 14:16:27;;;;;;;32.25;22.15;;;;;;;;;;5113030;28;20043;-74
2021/12/13 14:18:53;;;;;;;30.67;21.85;;;;;;;;;;5094993;28;20043;-74
2021/12/13 14:21:23;;;;;;;30.65;21.45;;;;;;;;;;5094731;28;20051;-75
2021/12/13 14:23:50;;;;;;;29.23;20.52;;;;;;;;;;5096531;28;20043;-74
2021/12/13 14:26:16;;;;;;;28.08;19.50;;;;;;;;;;5117595;28;20047;-78
2021/12/13 14:28:42;;;;;;;28.15;19.25;;;;;;;;;;5099589;28;20127;-80
2021/12/13 14:31:14;;;;;;;28.25;19.80;;;;;;;;;;5099083;28;20035;-81
2021/12/13 14:33:46;;;;;;;26.63;19.33;;;;;;;;;;5117053;28;20044;-81
2021/12/13 14:36:20;;;;;;;27.45;19.20;;;;;;;;;;5116993;28;20168;-80
2021/12/13 14:38:49;;;;;;;27.98;19.67;;;;;;;;;;5117136;28;20381;-81
2021/12/13 14:41:16;;;;;;;27.88;19.27;;;;;;;;;;5098762;28;20148;-82
2021/12/13 14:43:48;;;;;;;33.03;20.77;;;;;;;;;;5116801;28;20122;-81
2021/12/13 14:46:19;;;;;;;27.63;19.98;;;;;;;;;;5116684;28;20075;-81
2021/12/13 14:48:45;;;;;;;;;;;;;;;;;;5116967;28;20122;-82
2021/12/13 14:51:13;;;;;;;31.80;20.45;;;;;;;;;;5116947;28;19973;-81
2021/12/13 14:53:40;;;;;;;28.08;19.73;;;;;;;;;;5116711;28;20103;-81